Jesus Carrillo

Chief Scout - Sporting Cristal
3 Dec 2028
Sunday
Process

Personality

Adaptability (4) Ambition (6) Controversy (16) Loyalty (7) Pressure (20) Professionalism (5) Sportsmanship (1) Temperament (5)

Profile

Coaching Style Democratic
License Continental Pro
Determination 10
Man Management 6
Motivating 11
Discipline 13
Job Satisfaction
49%
Fatigue
0%
Role Chief Scout
Wage 29.6K p/w
Contract 14.03.2029

Performance

Behaviour Good
Training Effectiveness
32%
Player Development
65%
Injury Prevention
20%
Tactical Implementation
60%

Recent Events

Attended a recruitment meeting now
Recommended a transfer target now
Recommended a transfer target now
Recommended a transfer target now
Recommended a transfer target now
Assessed a player now
Assessed a player now
Assessed a player now

Currently Monitoring

407
Player Club Status Ability Confidence Watched Last Observed Latest Vote
Mauro Matorras Central Norte Active 90 / 103 40% 2 02.12.2028 -
Francisco Machis Llaneros Active 85 / 95 40% 2 02.12.2028 -
Joel Ezra Enyimba Active 99 / 101 40% 4 01.12.2028 -
Davinchi Getafe Active 126 / 125 40% 3 01.12.2028 -
Malte Hallin GIF Sundsvall Active 96 / 96 40% 1 01.12.2028 -
Luciano Cosentino Wanderers Active 125 / 126 40% 10 30.11.2028 -
Mauro Valiente Estudiantes Active 121 / 118 40% 4 30.11.2028 -
José Barreto Quilmes Active 117 / 118 40% 4 30.11.2028 -
Alejandro Tapia Central Norte Active 80 / 88 40% 4 29.11.2028 -
Aaron Branca Artigas Active 82 / 90 40% 2 29.11.2028 -
Daniel Barrea Godoy Cruz Active 123 / 122 40% 7 27.11.2028 -
Joaquín Zeballos Wanderers Active 110 / 109 40% 4 27.11.2028 -
Esteban Obregón Montevideo City Torque Active 119 / 119 40% 7 26.11.2028 -
Ramiro Ruiz Rodríguez Atlético Tucumán Active 125 / 121 40% 3 26.11.2028 -
Ignacio Yepez Cerrito Active 115 / 106 40% 7 25.11.2028 -
Alejo Cruz Juventud Active 131 / 119 40% 9 25.11.2028 -
Jefry Zapata Aldosivi Active 123 / 120 40% 2 25.11.2028 -
Matías Arezo Penarol Active 135 / 128 40% 7 24.11.2028 -
Walter Núñez Montevideo City Torque Active 114 / 116 40% 3 24.11.2028 -
Ignacio Russo Tigre Active 122 / 130 40% 3 24.11.2028 -
Gianluca Pugliese Güemes Active 108 / 106 40% 6 22.11.2028 -
Alexis Cuello San Lorenzo Active 126 / 123 40% 5 22.11.2028 -
Agustín Gallo Tristán Suárez Active 116 / 107 40% 4 21.11.2028 -
Agustín Rodríguez Juventud Active 127 / 121 40% 4 21.11.2028 -
Matías Sosa Arsenal Active 110 / 108 40% 4 19.11.2028 -
Marco Miori Alvarado Active 115 / 115 40% 6 19.11.2028 -
Rafael Moreno Atletico Venezuela Active 107 / 114 40% 11 18.11.2028 -
Rodrigo Auzmendi Banfield Active 127 / 121 40% 3 17.11.2028 -
Leandro Suhr Boston River Active 122 / 113 40% 4 16.11.2028 -
Alexander Díaz Deportivo Riestra Active 127 / 122 40% 2 16.11.2028 -
Yoshan Valois Lanús Active 122 / 121 40% 2 16.11.2028 -
Augusto Berrondo Tristán Suárez Active 106 / 108 40% 5 15.11.2028 -
Rodrigo Bogarín Barracas Central Active 126 / 115 40% 2 15.11.2028 -
Nicolás Medina Atlanta Active 112 / 108 40% 1 15.11.2028 -
Hian Rincón Once Caldas Active 95 / 100 40% 1 15.11.2028 -
Matías Satas Grimsby Town Active 100 / 123 40% 1 15.11.2028 -
Celías Ingenthron Platense Active 117 / 124 40% 3 14.11.2028 -
Benito Paklayan Alvarado Active 93 / 92 40% 2 14.11.2028 -
Noah Markmann Esbjerg Active 124 / 137 40% 1 14.11.2028 -
Tomás Fernández Aldosivi Active 115 / 117 40% 2 12.11.2028 -
Juan David Rueda Alianza Petrolera Active 119 / 110 40% 5 12.11.2028 -
Mateo Godoy Zira Active 83 / 100 40% 1 12.11.2028 -
Matías Magdaleno Estudiantes Active 115 / 116 40% 1 12.11.2028 -
Nicolás Ferreira Wanderers Active 123 / 123 40% 5 11.11.2028 -
Francisco Bonfiglio Boston River Active 116 / 116 40% 3 11.11.2028 -
Juan Cruz de los Santos Nacional Active 136 / 132 40% 4 08.11.2028 -
Agustín Alaniz Rentistas Active 115 / 112 40% 6 07.11.2028 -
Franco García Molde Active 114 / 115 40% 3 07.11.2028 -
Emiliano Gómez Boston River Active 117 / 119 40% 4 05.11.2028 -
Santiago Sala Güemes Active 118 / 111 40% 9 05.11.2028 -
Genaro Rossi San Martín SJ Active 115 / 110 40% 2 05.11.2028 -
Anderson Acevedo Bogota Active 88 / 93 40% 3 05.11.2028 -
Giaco Garombo Sheffield Wednesday Active 103 / 114 40% 2 05.11.2028 -
Mauricio Ponce Quilmes Active 89 / 100 40% 1 05.11.2028 -
Maximiliano Gómez Nacional Active 126 / 127 40% 4 03.11.2028 -
Esteban da Silva Racing Active 117 / 118 40% 2 03.11.2028 -
Jonás Luna Wanderers Active 118 / 118 40% 2 01.11.2028 -
Tyler Fletcher Rotherham United Active 110 / 131 40% 6 01.11.2028 -
Máximo Munarriz San Telmo Active 104 / 104 40% 3 01.11.2028 -
César Magallan Estudiantes de Merida Active 116 / 110 40% 4 30.10.2028 -
Franco Ayunta Temperley Active 112 / 107 40% 2 30.10.2028 -
Estanislao López Colón Active 87 / 94 40% 1 30.10.2028 -
Lisandro Cabrera Maipú Active 115 / 118 40% 3 29.10.2028 -
Agustín Colazo Unión de Santa Fe Active 128 / 117 40% 5 29.10.2028 -
Mateo Bajamich Atlético Tucumán Active 120 / 121 40% 3 28.10.2028 -
José María Ingratti Dinamo Tbilisi Active 107 / 114 40% 1 28.10.2028 -
Mateo Faure BATE Active 90 / 106 40% 7 25.10.2028 -
Jhon Murillo Jaguares Active 115 / 113 40% 2 25.10.2028 -
Francisco Acosta San Martín SJ Active 92 / 102 40% 2 23.10.2028 -
Gideon Manaseh Ikorodu City Active 87 / 104 40% 3 20.10.2028 -
Gonzalo Plata Nacional Active 138 / 136 40% 6 20.10.2028 -
Luciano Herrera Newell's Old Boys Active 125 / 127 40% 2 20.10.2028 -
Cristian Barros Cerro Active 110 / 107 40% 1 20.10.2028 -
Aytor Herrera Mineros de Guayana Active 95 / 93 40% 1 19.10.2028 -
Facundo Krüger Temperley Active 123 / 116 40% 3 17.10.2028 -
Alexander Machado Penarol Active 115 / 120 40% 1 14.10.2028 -
Ignacio Ramírez Newell's Old Boys Active 132 / 127 40% 2 13.10.2028 -
Samuel Córdoba Depor Active 90 / 93 40% 1 11.10.2028 -
Felipe Pujol Vélez Active 116 / 118 40% 1 11.10.2028 -
Antony Alonso Deportivo Riestra Active 124 / 124 40% 1 08.10.2028 -
Adalberto Peñaranda Deportivo Tachira Active 118 / 117 40% 3 02.10.2028 -
Tobías Ramírez River Plate Active 131 / 131 40% 4 01.10.2028 -
Luis Otávio Orlando City Active 112 / 120 40% 2 01.10.2028 -
Lautaro Dufur Juventud Active 98 / 111 40% 1 30.09.2028 -
Felipe Obradovich Ferro Carril Oeste Active 113 / 118 40% 1 30.09.2028 -
Máximo Magnoli Ferro Carril Oeste Active 103 / 103 40% 1 24.09.2028 -
Peyton Miller New England Revolution Active 118 / 129 40% 1 24.09.2028 -
Luciano Posadas Central Córdoba SdE Active 104 / 99 40% 1 24.09.2028 -
Nicolás Cordero Aldosivi Active 113 / 113 40% 1 21.09.2028 -
Álvaro López Plaza Colonia Active 121 / 116 40% 5 18.09.2028 -
Sebastián Cocimano Nueva Chicago Active 109 / 116 40% 2 18.09.2028 -
Lucas Carrizo Rentistas Active 113 / 117 40% 2 11.09.2028 -
Morgan Guilavogui Real Salt Lake Active 128 / 135 40% 1 11.09.2028 -
Alejandro Almaraz NK Celje Active 124 / 129 40% 1 05.09.2028 -
Germán Barbas Racing Santander Active 123 / 124 40% 1 05.09.2028 -
Agustín Medina Lanús Active 124 / 126 40% 3 01.09.2028 -
Ivan Borges Defensores Active 80 / 93 40% 3 01.09.2028 -
Thomas Schlupp BA All Stars Active 126 / 105 40% 4 28.08.2028 -
Lucas Camejo River Plate Active 85 / 86 40% 1 27.08.2028 -
Jonathan Cañete Portuguesa Active 112 / 112 40% 2 24.08.2028 -
Agustín Paz Progreso Active 111 / 111 40% 1 23.08.2028 -
Emanuele Scipioni Monopoli Active 106 / 115 40% 2 17.08.2028 -
Simone Mazzocchi Cosenza Active 125 / 115 40% 6 16.08.2028 -
Jérémy Le Douaron Palermo Active 139 / 138 40% 6 16.08.2028 -
Emiliano Saliadarre Miramar Misiones Active 110 / 116 40% 1 16.08.2028 -
Walid Cheddira Avellino Active 132 / 133 40% 3 14.08.2028 -
M'Bala Nzola Cagliari Active 128 / 131 40% 1 14.08.2028 -
Federico Álvarez Dinamo Tbilisi Active 123 / 115 40% 1 12.08.2028 -
Jake Evans Crewe Alexandra Active 115 / 136 40% 3 09.08.2028 -
Federico Matarán Giana Erminio Active 114 / 123 40% 2 09.08.2028 -
Augusto Bando Ascoli Active 116 / 127 40% 1 09.08.2028 -
Aaron Collins Milton Keynes Dons Active 130 / 122 40% 11 08.08.2028 -
Carlton Morris Derby County Active 124 / 127 40% 2 05.08.2028 -
Hwang Hee-Chan Wolverhampton Active 149 / 139 40% 1 05.08.2028 -
Camillo Tavernelli Arezzo Active 116 / 120 40% 4 01.08.2028 -
Johnny Kenny Preston Active 123 / 124 40% 4 01.08.2028 -
Layton Stewart Barnet Active 124 / 110 40% 2 01.08.2028 -
Liam Cullen Swansea City Active 120 / 126 40% 5 31.07.2028 -
Lamine Bèye Portimonense Active 107 / 129 40% 2 31.07.2028 -
Daniel Banjaqui Benfica Active 134 / 136 40% 1 31.07.2028 -
Jorge Cabezas Hurtado Watford Active 123 / 116 40% 5 29.07.2028 -
Che Adams Torino Active 142 / 141 40% 1 29.07.2028 -
Ryan Graydon Salford City Active 103 / 107 40% 2 28.07.2028 -
Victor Torp Bristol Rovers Active 128 / 140 40% 1 28.07.2028 -
Sam Dalby Bolton Wanderers Active 112 / 116 40% 5 26.07.2028 -
Kyle Wootton Stockport County Active 125 / 128 40% 4 25.07.2028 -
Jalen Blesa Oliveirense Active 133 / 129 40% 1 25.07.2028 -
Martim Cunha Porto Active 120 / 116 40% 4 22.07.2028 -
Amine Boukamir Charleroi Active 111 / 108 40% 5 22.07.2028 -
Kiani Inge Groningen Active 120 / 128 40% 3 22.07.2028 -
Ryan Kavuma-McQueen Accrington Stanley Active 131 / 136 40% 8 22.07.2028 -
Admir Bristrić Cambridge United Active 121 / 117 40% 2 22.07.2028 -
Simone Suppa Virtus Verona Active 98 / 93 40% 2 21.07.2028 -
Olivier Leroux Mouscron Active 98 / 113 40% 8 17.07.2028 -
Jan Bürger Northampton Town Active 123 / 121 40% 13 17.07.2028 -
Marco Tumminello Benevento Active 121 / 112 40% 2 17.07.2028 -
Sam Szmodics Ipswich Town Active 134 / 132 40% 1 17.07.2028 -
Norman Bassette Coventry City Active 131 / 119 40% 2 15.07.2028 -
Rui Costa Port Vale Active 114 / 117 40% 1 14.07.2028 -
Diego Vargas Universidad de Concepcion Active 91 / 94 40% 2 10.07.2028 -
Riquelme Thompson-Jones Accrington Stanley Active 114 / 127 40% 3 10.07.2028 -
Arthur Sales Maritzburg United Active 127 / 116 40% 8 09.07.2028 -
Alassana Jatta Notts County Active 111 / 111 40% 1 08.07.2028 -
Cheveyo Tsawa Club Brugge Active 119 / 133 40% 2 06.07.2028 -
Artem Nosachev Spartak Moscow Active 92 / 85 40% 1 06.07.2028 -
Nicolò Moranduzzo Renate Active 88 / 99 40% 1 03.07.2028 -
Josh Nichols Oldham Athletic Active 129 / 118 40% 7 02.07.2028 -
Mirza Ćatović VfB Stuttgart Active 127 / 125 40% 1 02.07.2028 -
Sam Nombe Milton Keynes Dons Active 113 / 109 40% 5 01.07.2028 -
John Yeboah Venezia Active 138 / 120 40% 3 27.06.2028 -
Nicola Rauti Vicenza Active 116 / 111 40% 1 27.06.2028 -
Job Ochieng Real Sociedad Active 105 / 114 40% 4 26.06.2028 -
Sam Smith Wrexham Active 120 / 125 40% 3 26.06.2028 -
Tiago Gordillo San Miguel Active 90 / 96 40% 2 25.06.2028 -
Carlos Gugenheim Grimsby Town Active 110 / 113 40% 1 23.06.2028 -
Ante Crnac Bristol Rovers Active 124 / 128 40% 2 22.06.2028 -
Thijs Kraaijeveld USM Alger Active 111 / 131 40% 2 17.06.2028 -
Kleis Bozhanaj Modena Active 132 / 128 40% 2 17.06.2028 -
Luca Moro Padova Active 117 / 117 40% 2 17.06.2028 -
Miguel Figueiredo Benfica Active 116 / 136 40% 5 16.06.2028 -
Evidence Makgopa Orlando Pirates Active 113 / 124 40% 3 15.06.2028 -
Timur Suleimanov Nizhniy Novgorod Active 132 / 118 40% 1 15.06.2028 -
Andrey Ivlev Nizhniy Novgorod Active 102 / 123 40% 3 14.06.2028 -
Dale Taylor Blackpool Active 110 / 113 40% 3 13.06.2028 -
Marcus Browne AFC Wimbledon Active 117 / 106 40% 1 13.06.2028 -
Stephen Humphrys Bradford City Active 106 / 105 40% 4 30.05.2028 -
Josh Stokes Bristol City Active 121 / 116 40% 5 30.05.2028 -
Vyacheslav Grulev Nizhniy Novgorod Active 117 / 120 40% 3 30.05.2028 -
Ole Romeny Oxford United Active 109 / 120 40% 2 29.05.2028 -
Rayan Kolli Queens Park Rangers Active 114 / 112 40% 1 29.05.2028 -
Armstrong Oko-Flex Levski Active 135 / 132 40% 7 28.05.2028 -
Manuel De Luca Cremonese Active 138 / 132 40% 2 28.05.2028 -
Unai Ropero Alavés Active 127 / 123 40% 1 28.05.2028 -
Giuseppe Panico Foggia Active 126 / 116 40% 4 26.05.2028 -
Charlie Kelman Barnsley Active 124 / 126 40% 2 26.05.2028 -
Gennaro Tutino Sampdoria Active 119 / 129 40% 2 23.05.2028 -
Facundo Lescano Salernitana Active 118 / 114 40% 1 15.05.2028 -
Alejandro Cantero Jomo Cosmos Active 128 / 117 40% 1 10.05.2028 -
Igor Tyjon Barrow AFC Active 105 / 115 40% 1 09.05.2028 -
Miro Arsenal Tula Active 109 / 119 40% 5 07.05.2028 -
Mees Rijks Bristol Rovers Active 109 / 118 40% 2 06.05.2028 -
Gabriele Gori Ascoli Active 107 / 109 40% 4 06.05.2028 -
Siyabonga Mabena Bidvest Wits Active 126 / 118 40% 10 04.05.2028 -
Gaël Lafont Dolomiti Bellunesi Active 114 / 111 40% 1 04.05.2028 -
Nana Nuhu WAFA Active 102 / 95 40% 1 04.05.2028 -
Kaye Furo Reading Active 119 / 121 40% 1 02.05.2028 -
Vincenzo Damiano Atalanta Active 108 / 121 40% 1 02.05.2028 -
Amin Nabizada Exeter City Active 118 / 119 40% 1 02.05.2028 -
Ibrahim Fullah Charlton Athletic Active 115 / 127 40% 1 02.05.2028 -
Emanuele Schimmenti Potenza Active 107 / 118 40% 3 29.04.2028 -
Elijah Adebayo Luton Town Active 123 / 126 40% 3 27.04.2028 -
Wesley Pomba Rukh Active 112 / 123 40% 1 26.04.2028 -
Felipe Varela Trujillanos Active 87 / 96 40% 1 24.04.2028 -
Francisco Arias Gimnasia y Esgrima Active 95 / 102 40% 1 22.04.2028 -
Musa Danjuma Umraniyespor Active 84 / 111 40% 1 21.04.2028 -
Samuel Kalu Botev Plovdiv Active 117 / 112 40% 1 18.04.2028 -
Bernardo Lima Porto Active 104 / 110 40% 7 16.04.2028 -
Callum Lang Preston Active 117 / 112 40% 1 16.04.2028 -
Matthias Phaëton CSKA Sofia Active 119 / 110 40% 1 13.04.2028 -
Erick Dolly Black Aces Active 113 / 121 40% 3 10.04.2028 -
Brayan Gil Baltika Active 123 / 133 40% 6 10.04.2028 -
Tashreeq Matthews Bloemfontein Celtic Active 125 / 113 40% 5 07.04.2028 -
Randy Nteka Krasnodar Active 125 / 136 40% 1 06.04.2028 -
Christian Saydee Wigan Athletic Active 109 / 110 40% 2 05.04.2028 -
Vegard Erlien Tromso Active 116 / 114 40% 1 27.03.2028 -
Yuri Tanque Criciuma Active 119 / 116 40% 1 23.03.2028 -
Joel Asoro Apollon Active 129 / 126 40% 1 23.03.2028 -
Pedro Marques Apollon Active 113 / 128 40% 2 20.03.2028 -
Mikhail Ignatov Sochi Active 109 / 122 40% 2 19.03.2028 -
Kwadwo Duah Ludogorets Active 142 / 121 40% 1 19.03.2028 -
François Kamano Sochi Active 112 / 115 40% 1 17.03.2028 -
Etiosa Ighodaro Kaizer Chiefs Active 116 / 116 40% 4 14.03.2028 -
Peter Christiansen Haugesund Active 126 / 132 40% 1 09.03.2028 -
Thiago Silvero Vélez Active 132 / 137 40% 1 21.02.2028 -
Olivier Mambwa Young Boys Active 100 / 121 40% 1 17.02.2028 -
Teboho Mokoena Black Aces Active 86 / 81 40% 2 15.02.2028 -
Kirill Kistenev Botev Vratsa Active 81 / 93 40% 1 15.02.2028 -
Victor Hernandez Santa Fe Active 121 / 126 40% 9 14.02.2028 -
Colin Guske Orlando City Active 100 / 91 40% 1 13.02.2028 -
Jorthy Mokio ADO Den Haag Active 138 / 130 40% 1 12.02.2028 -
Edvard Pettersen Sandefjord Active 110 / 127 40% 2 11.02.2028 -
Esquerdinha Notts County Active 119 / 136 40% 1 09.02.2028 -
Santiago Colidio Liepaja Active 97 / 96 40% 1 09.02.2028 -
Brandon Vázquez Austin FC Active 114 / 123 40% 1 08.02.2028 -
Favio Cabral Mitre Active 120 / 114 40% 1 03.01.2028 -
Lucas Nicol Mjondalen Active 70 / 82 40% 1 27.12.2027 -
David Damboama El-Kanemi Warriors Active 82 / 81 40% 1 27.12.2027 -
Jonás Acevedo Instituto Active 119 / 121 40% 1 20.12.2027 -
Nazareno Funez Defensa y Justicia Active 122 / 116 40% 1 20.12.2027 -
Facundo Balatti Penarol Active 107 / 105 40% 1 16.12.2027 -
Nazareno Roselli Defensa y Justicia Active 115 / 120 40% 2 01.12.2027 -
Alan Cantero Juan Aurich Active 117 / 121 69% 1 01.12.2027 Approve
Nahuel Leivas Montevideo City Torque Active 102 / 110 40% 1 01.12.2027 -
Luka Andrade Montevideo City Torque Active 102 / 107 40% 4 29.11.2027 -
Jakob Gunnar Sigurðsson KR Active 89 / 93 40% 3 29.11.2027 -
Anthony da Costa Artigas Active 85 / 88 40% 9 27.11.2027 -
Fletcher Boyd Accrington Stanley Active 102 / 104 40% 2 27.11.2027 -
Amaury Morales Leon Active 110 / 122 40% 3 26.11.2027 -
Lamin Sillah Exeter City Active 90 / 102 40% 2 26.11.2027 -
Pavel Núñez Zadar Active 96 / 77 40% 2 26.11.2027 -
Julian Hall Real Salt Lake Active 101 / 126 40% 4 25.11.2027 -
Valentino Acuña Newell's Old Boys Active 119 / 121 40% 1 25.11.2027 -
Jeremías Merlo Gimnasia La Plata Active 124 / 126 40% 1 25.11.2027 -
Juan Esteban García Deportes Tolima Active 86 / 101 40% 3 23.11.2027 -
Julián Bragado Morón Active 81 / 84 40% 8 22.11.2027 -
Brandon Álvarez Penarol Active 93 / 99 40% 1 21.11.2027 -
Artur Kozyrev Volna Active 75 / 78 40% 1 21.11.2027 -
Mateo Pérez Curci Independiente Active 122 / 125 40% 1 20.11.2027 -
Nicolás Ferreira Artigas Active 80 / 95 40% 1 20.11.2027 -
Hassan Beja AFC Leopards Active 97 / 103 40% 8 19.11.2027 -
Ramiro Jara Racing Active 89 / 86 40% 9 17.11.2027 -
Santiago Uriza Vélez Active 93 / 97 40% 2 16.11.2027 -
Lander Astiazarán Real Sociedad Active 101 / 120 40% 1 16.11.2027 -
Matvii Ponomarenko Dynamo Kyiv Active 127 / 137 40% 1 11.11.2027 -
Facundo Rodríguez Talleres Active 88 / 98 40% 8 10.11.2027 -
Andy Rojas New York Red Bulls Active 106 / 109 40% 3 09.11.2027 -
Matías Cantero All Boys Active 96 / 97 40% 1 09.11.2027 -
Luighi Palmeiras Active 111 / 120 40% 2 07.11.2027 -
Maximo Ingravidi Colón Active 102 / 104 40% 1 06.11.2027 -
Edison Gruezo Guadalajara Active 112 / 102 40% 5 05.11.2027 -
Miloš Luković RC Strasbourg Active 129 / 120 40% 3 02.11.2027 -
Bruno Fernández Independiente Active 95 / 88 40% 1 01.11.2027 -
Justin Ellis Orlando City Active 87 / 110 40% 1 31.10.2027 -
Luca Meirelles Kudrivka Active 114 / 119 40% 4 27.10.2027 -
Matija Popović Fakel Active 113 / 120 40% 1 26.10.2027 -
Valentino Huertas Morón Active 103 / 107 40% 1 26.10.2027 -
Benjamín Rodríguez Albion Active 76 / 95 40% 1 26.10.2027 -
Eli Junior Kroupi Bournemouth Active 149 / 141 40% 2 21.10.2027 -
Ramiro Contreras Alvarado Active 72 / 90 40% 1 21.10.2027 -
Juan Diego Perdomo Depor Active 83 / 94 40% 1 21.10.2027 -
Matías Canedo Rampla Juniors Active 83 / 88 40% 1 21.10.2027 -
Anton Matković NK Osijek Active 124 / 114 40% 1 17.10.2027 -
Abubakar Garba Nasarawa United Active 84 / 92 40% 5 16.10.2027 -
Nicholas Simmonds FC Dallas Active 91 / 104 40% 1 11.10.2027 -
Nahuel Reyes Mitre Active 85 / 88 40% 1 07.10.2027 -
Egor Yuschenko Lida Active 70 / 80 40% 1 06.10.2027 -
Joaquín Varela Albion Active 75 / 85 40% 1 06.10.2027 -
Luca Feler Vélez Active 96 / 105 40% 1 05.10.2027 -
Mohamed Bolivar Barranquilla Active 92 / 93 40% 1 05.10.2027 -
Alejandro Garay Independiente Active 92 / 96 40% 1 04.10.2027 -
Jhon Aponza Boca Juniors Active 113 / 110 40% 2 02.10.2027 -
Chimobi Igwilo Rangers International Active 94 / 96 40% 5 01.10.2027 -
Gabriel Mujica Envigado Active 76 / 85 40% 2 01.10.2027 -
Kevin Angulo America de Cali Active 102 / 106 40% 2 30.09.2027 -
Juan Rodríguez Cerro Largo Active 99 / 105 40% 2 29.09.2027 -
Idris Ajiya Nasarawa United Active 95 / 95 40% 2 29.09.2027 -
Dylan Cabral Arsenal Active 97 / 110 40% 4 28.09.2027 -
Dániel Pintér Inter Miami CF Active 81 / 90 40% 1 28.09.2027 -
Maren Kefas Plateau United Active 94 / 93 40% 5 24.09.2027 -
Diego Robles Union Espanola Active 75 / 89 40% 1 24.09.2027 -
Alan Torterolo Defensor Sporting Active 92 / 108 40% 8 21.09.2027 -
Axel Pedrozo Almagro Active 83 / 90 40% 1 21.09.2027 -
Elion Krosa Odd Active 84 / 84 40% 1 20.09.2027 -
Ruben Ramos LA Galaxy Active 93 / 106 40% 2 17.09.2027 -
Joseph Abah Remo Stars Active 75 / 100 40% 2 15.09.2027 -
Stanley Amon Bayelsa United Active 83 / 97 40% 7 10.09.2027 -
Chineme Chinonso Ikorodu City Active 87 / 99 40% 3 07.09.2027 -
Tiago Pucciarelli IF Elfsborg Active 93 / 108 40% 4 07.09.2027 -
Mbekezeli Mbokazi Chicago Fire Active 133 / 140 40% 1 06.09.2027 -
Alejandro Leiva Patronato Active 100 / 102 40% 1 06.09.2027 -
Omar Bautista Gerez Central Córdoba SdE Active 89 / 89 40% 3 03.09.2027 -
Ahmed Khaled Paralimni Active 88 / 111 40% 1 22.08.2027 -
Serge Daura PWD Bamenda Active 91 / 109 40% 2 21.08.2027 -
Godbless Ayeke AS Bakaridjan Active 79 / 77 40% 1 20.08.2027 -
Ezekiel Kwame Alladoh Philadelphia Union Active 117 / 122 40% 3 19.08.2027 -
Alen Vukaj Alcione Milano Active 97 / 110 40% 1 16.08.2027 -
Michael Noumon Heart of Lions Active 74 / 88 40% 1 16.08.2027 -
Miloš Jovičić Zabbar St. Patrick Active 100 / 110 40% 3 14.08.2027 -
Darlvin Yeboah Bechem United Active 85 / 78 40% 3 13.08.2027 -
Dani Ángel Sampdoria Active 94 / 103 40% 1 09.08.2027 -
Fletcher Holman Swindon Town Active 91 / 96 40% 1 06.08.2027 -
Ryan Oné Sheffield United Active 121 / 110 40% 1 05.07.2027 -
Nazif Inoussa Benfica Active 83 / 79 40% 1 28.06.2027 -
Issa Yusuf Shooting Stars Active 88 / 105 40% 1 24.06.2027 -
Tommaso Cecotti Carpi Active 84 / 109 40% 9 23.06.2027 -
Andrea Bertoncini Triestina Active 95 / 87 40% 4 23.06.2027 -
Leandro Martins Benfica Active 93 / 106 40% 3 21.06.2027 -
Godwin Oham Warri Wolves Active 95 / 94 40% 2 21.06.2027 -
Lisandro Alzugaray Universitario Active 115 / 117 69% 1 21.06.2027 Approve
Olalekan Adeleke Remo Stars Active 79 / 92 40% 1 20.06.2027 -
Riley Owen Stevenage Active 95 / 121 40% 4 13.06.2027 -
Kazunari Kita Real Sociedad Active 98 / 102 40% 7 13.06.2027 -
Hosea Michael Remo Stars Active 90 / 103 40% 1 13.06.2027 -
Gonçalo Oliveira Benfica Active 101 / 120 40% 10 01.06.2027 -
Ramadan Ashour Sporting Cristal Active 120 / 120 67% 1 01.06.2027 Approve
Rivaldo Mkhize Black Aces Active 72 / 76 40% 8 31.05.2027 -
Jenson Jones Walsall Active 98 / 108 40% 5 28.05.2027 -
Tiago Freitas Benfica Active 98 / 125 40% 4 17.05.2027 -
Zane Albarus Shrewsbury Town Active 106 / 99 40% 9 14.05.2027 -
Edwin Asamoah Berekum Chelsea Active 82 / 90 40% 4 10.05.2027 -
Samuele di Benedetto Twente Active 114 / 125 40% 2 01.05.2027 -
Lucas Agazzi Villarreal Active 120 / 127 40% 6 26.04.2027 -
David Ozoh Derby County Active 114 / 115 40% 4 25.04.2027 -
Charlie Gray Fleetwood Town Active 87 / 102 40% 4 24.04.2027 -
Halam Loboa Sevilla Active 130 / 132 40% 3 12.04.2027 -
Alessandro Zoboletti Sambenedettese Active 102 / 95 40% 1 09.04.2027 -
Chari Giwa US Bougouni Active 77 / 85 40% 3 08.04.2027 -
Kamaldeen Atiemo Wa All Stars Active 85 / 104 40% 1 08.04.2027 -
Konta Ismaily Active 87 / 96 40% 2 06.04.2027 -
Mpho Khethang FC Diarra Active 83 / 83 40% 1 02.04.2027 -
Bence Dárdai VfL Wolfsburg Active 118 / 133 40% 1 01.04.2027 -
James Dornelly Peterborough United Active 109 / 111 40% 4 31.03.2027 -
Sascha Britschgi AC Milan Active 124 / 123 40% 3 26.03.2027 -
Maldini Kacurri Grimsby Town Active 85 / 103 40% 1 17.03.2027 -
Wessel Kuhn PSV Active 97 / 120 40% 1 17.03.2027 -
Santiago Fernández Talleres Active 122 / 120 40% 1 09.03.2027 -
Cemran Dansin Orlando Pirates Active 121 / 117 40% 1 04.03.2027 -
Makar Vysochenko Spartak Moscow Active 72 / 92 40% 1 27.02.2027 -
Samuele Diodato Lumezzane Active 92 / 85 40% 1 26.02.2027 -
Afriyie Sulemana WAFA Active 96 / 80 40% 1 23.02.2027 -
Marcelo Camargo Blackpool Active 111 / 114 40% 1 13.02.2027 -
Lucas Mbamba Westerlo Active 84 / 106 40% 1 10.02.2027 -
Per Kloosterboer Utrecht Active 100 / 115 40% 1 09.02.2027 -
Everardo López Betis Active 127 / 133 40% 1 08.02.2027 -
Matteo Pérez Vinlöf Dinamo Zagreb Active 126 / 133 40% 1 02.02.2027 -
Alejo Gelsomino Gimnasia La Plata Active 99 / 108 40% 1 01.02.2027 -
Diogo Monteiro Tondela Active 107 / 95 40% 1 07.01.2027 -
Savely Nikiforov Zenit Active 68 / 85 40% 1 07.01.2027 -
Galo Galarza Estudiantes Active 92 / 113 40% 1 06.01.2027 -
Alan Forneris Racing Club Active 120 / 118 40% 1 02.01.2027 -
Juan Fernándes Pinto Almagro Active 106 / 108 40% 1 31.12.2026 -
Darwin Soteldo Real Sociedad Active 94 / 116 40% 1 29.12.2026 -
Louis Leroux FC Nantes Active 111 / 126 40% 1 28.12.2026 -
Caleb Yirenkyi Coventry City Active 130 / 128 40% 1 28.12.2026 -
Angelo Campos Juan Aurich Active 104 / 110 65% 1 14.12.2026 Approve
Illaijh de Ruijter ADO Den Haag Active 120 / 121 40% 1 03.12.2026 -
Tyrhys Dolan Espanyol Active 124 / 128 40% 1 29.11.2026 -
Sergey Pinyaev Lokomotiv Moscow Active 131 / 133 40% 2 27.11.2026 -
Isaac Matondo Koper Active 99 / 101 40% 1 27.11.2026 -
Alexis Steimbach Gimnasia La Plata Active 113 / 123 40% 1 27.11.2026 -
Ekain Orobengoa Real Sociedad Active 88 / 113 40% 2 25.11.2026 -
Jáder Valencia Deportes Tolima Active 106 / 118 40% 2 24.11.2026 -
Alexander Aravena Portland Timbers Active 123 / 139 40% 1 23.11.2026 -
Jacques Siwe Rubin Active 125 / 116 40% 3 22.11.2026 -
Tio Cipot NK Maribor Active 116 / 122 40% 2 22.11.2026 -
Stephen Amankona Aduana Stars Active 83 / 80 40% 1 22.11.2026 -
Denzel Jubitana Neftchi Active 104 / 124 40% 1 19.11.2026 -
Martín Ojeda Orlando City Active 146 / 121 40% 1 16.11.2026 -
Kévin Denkey FC Cincinnati Active 117 / 139 40% 1 12.11.2026 -
Assad Al Hamlawi Universitatea Craiova Active 111 / 131 40% 1 10.11.2026 -
Bénie Traoré New York City Active 119 / 117 40% 1 10.11.2026 -
Petar Stanić Ludogorets Active 145 / 124 40% 2 09.11.2026 -
Lucas Cepeda Elche Active 137 / 125 40% 1 09.11.2026 -
Duncan McGuire Houston Dynamo Active 119 / 132 40% 1 08.11.2026 -
Ieltsin Camões Tromso Active 118 / 123 40% 1 28.10.2026 -
Ammar Ramadan DAC Dunajska Streda Active 137 / 136 40% 2 27.10.2026 -
Luis Caicedo Spartak 1918 Active 82 / 93 40% 1 23.10.2026 -
Jens Petter Hauge Bodo/Glimt Active 127 / 138 40% 1 20.10.2026 -
Bradley Zwane SuperSport United Active 115 / 129 40% 1 20.10.2026 -
Daniel Karlsbakk Sarpsborg 08 Active 133 / 122 40% 1 17.10.2026 Needs More Info
Matías Pellegrini Vélez Active 117 / 118 40% 1 16.10.2026 -
Gaspar Duarte Rosario Central Active 109 / 110 40% 1 11.10.2026 -
Erik Botheim Viking Active 137 / 133 40% 1 07.10.2026 -
Simphiwe Selepe Orlando Pirates Active 106 / 122 40% 1 06.10.2026 -
Mateo Caballero Defensor Sporting Active 98 / 115 40% 1 09.09.2026 -
Lucas Souto Defensa y Justicia Active 121 / 116 40% 2 07.08.2026 -
Tomás Galván River Plate Active 119 / 131 40% 1 07.08.2026 -
Franco Sivetti Gimnasia y Tiro Active 102 / 111 40% 1 06.08.2026 -
Francisco Manenti Metropolitanos Active 106 / 113 40% 1 06.08.2026 -
Bongani Zungu Ajax Cape Town Active 131 / 126 40% 1 05.08.2026 -
Carlo Lattanzio San Martín SJ Active 111 / 99 40% 1 03.08.2026 -
Oscar Garrido Mitre Active 117 / 120 40% 1 02.08.2026 -
Brahim Díaz Real Madrid Active 160 / 134 40% 1 02.08.2026 -
Enzo Giménez Queretaro Active 137 / 119 40% 1 02.08.2026 -
Roberto López Leganés Active 130 / 118 40% 1 01.08.2026 -
Chidera Ejuke Sevilla Active 134 / 142 40% 1 01.08.2026 -
Francisco González Metilli Belgrano Active 134 / 125 40% 1 01.08.2026 -